Flugplatz Texel (EHTX)

Hier findest Du alle Informationen zum Flugplatz Texel (EHTX).

Informationen für Piloten zum Flugplatz Texel

Hier findest Du alle relevanten Informationen, die Du als Pilot benötigst, um Texel anzufliegen.

Flugplatz: Texel ICAO-Code: EHTX
Frequenz Turm: 119,300 Mhz GAFOR Gebiet: -
Frequenz Ground: 119,300 Mhz Mogas: ja
Platzrunde: SO 1002 ft Landegebühr: -
Platzhöhe: - Sunrise: 03:15 Uhr UTC
Pisten: 04/22 - 1115 m x 40 m, GRAS Sunset: 20:13 Uhr UTC

Flugwetter am Flugplatz Texel

Die METAR Information stammen aus EDDG (221.34 km entfernt).

METAR Code:
2017/06/28 17:20
EDDG 281720Z 21006KT 160V250 9999 FEW005 SCT015 BKN050 19/17 Q0995 NOSIG

Flugschulen am Flugplatz Texel

Am Flugplatz Texel gibt es leider keine Flugschule.

Benachbarte Flugplätze und Flugschulen

Es gibt einen weiteren Flugplatz in einem Umkreis von 50 km um den Flugplatz Texel.

Flugplatz Middenmeer UL Platz 35.85 km
Jetzt anmelden

Passwort vergessen

Umfrage Archiv

Würdet Ihr Autopiloten in ULs befürworten?

Ja
50.1 %
Nein
31.8 %
Mir ist es egal
18 %
Stimmen: 355 | Diskussion (38)
Anzeige: Roland Aircraft
Statistik Alle Mitglieder

Aktuell sind 24 Besucher online, davon 2 Mitglieder und 22 Gäste.


Mitglieder online:
Chris_EDNC  hufisch 

Anzeige: VFR Sprechfunk Simulator


Anzeige: Pocket FMS